Dayton, OH (45427)

9:44 AM EDT on August 30, 2016 (GMT -0400)
New Lebanon | | Change Station

Elev 935 ft 39.77 °N, 84.38 °W | Updated 7 minutes ago

Partly Cloudy
Partly Cloudy
75.3 °F
Feels Like 76 °F
N
1.0
Wind Variable Wind from NNE
Gusts 0.0 mph

Today
High -- | Low -- °F
--% Chance of Precip.
Yesterday
High -- | Low -- °F
Precip. -- in
Pressure 30.18 in
Visibility 10.0 miles
Clouds Few 25000 ft
Heat Index 76 °F
Dew Point 68 °F
Humidity 79%
Rainfall 0.00 in
Snow Depth Not available.
7:03 AM 8:10 PM
Waning Crescent, 3% visible
METAR KDAY 301256Z 00000KT 10SM FEW250 22/17 A3020 RMK AO2 SLP220 T02220172
Pressure 30.18 in
Visibility 10.0 miles
Clouds Few 25000 ft
Heat Index 76 °F
Dew Point 68 °F
Humidity 79%
Rainfall 0.00 in
Snow Depth Not available.
7:03 AM 8:10 PM
Waning Crescent, 3% visible
METAR KDAY 301256Z 00000KT 10SM FEW250 22/17 A3020 RMK AO2 SLP220 T02220172

10-Day Weather Forecast

Almanac

Astronomy

Aug. 30, 2016 Rise Set
Actual Time
Civil Twilight
Nautical Twilight
Astronomical Twilight
Moon
Length of Visible Light
Length of Day
Tomorrow will be .
, % of the Moon is Illuminated

Today's Extremes

State Highs State Lows

Community

WunderPhotos

Upload Photos

1,935,833 photos uploaded!

WunderBlog® & News

Nearby

Air Quality

  Air Quality AQ Index Pollutant
Not available.

Snow Depth

Station Depth Elevation

Earthquake Activity

City Distance Mag. Time & Date
Minimum magnitude displayed is 2.5.

Coastal Water Temperatures

Place Temperature

Stations

Nearby Weather Stations

Station Location Temp. Windchill Dew Point Humidity Wind Precip. Elev Updated Type
                   

Watches & Warnings

There are currently no watches in effect.